Airfield :
LOGIN :

Register | Disclaimer

   EN    FR    IT 

 










Legend :    VFR   Marginal VFR   IFR   Intensive IFR   Very Intensive IFR
Visi :
Ceiling :
>= 8 km
>= 3000ft
5 to 8 km
1000 to 3000 ft
1500m to 5 km
500 to 1000 ft
800 to 1500m
200 to 500 ft
< 800m
< 200 ft
Symbols :   Thunderstorms  Fog  Heavy snow  Heavy precipitations  Wind > 20 kt
SIGMETs :     Misc.  Thunderstorms  Icing  Turbulence  Mountain Waves  Volcanic Ashes






- Airport Elevation : 80 ft
- IATA code : LPL


EGGP - Liverpool John Lennon

CURRENT METAR :
  • 071950Z 25018KT CAVOK 12/07 Q1015

EXPIRED METARs :
  • 071920Z 24013KT CAVOK 12/08 Q1014
  • 071850Z 25013KT CAVOK 12/08 Q1014
  • 071820Z 26015KT CAVOK 12/07 Q1014
  • 071750Z 25016KT CAVOK 12/08 Q1014
  • 071720Z 25013KT CAVOK 13/08 Q1013
  • 071650Z 24012KT CAVOK 13/08 Q1013

TAF TAF EGGP
Valid from the 07 at 18:00 until the 08 at 18:00 UTC


071701Z 0718/0818 25012KT 9999 SCT045
PROB40
TEMPO 0718/0724 26015G25KT 6000 SHRA
PROB30
TEMPO 0800/0809 6000 SHRA
ATIS : +44 151 907 2000 (option 5 or ext 5150)
Met : +44 871 750 5150



MET'MAP, your aeronautical weather chart ! - Copyright ORBIFLY December 2007 - Disclaimer

ORBIFLY MET'MAP TEAM :

Programming & Development : Alexandra Zaïnal
Original concept : Baudouin d'Aumeries
Technical & hardware support : Manuel Goepfert
Assistance : Marc-Olivier Méhu




SOURCES & CREDITS :

   NOAA